createdAt,value
2023-01-11T00:01:11.061Z,7.55
2023-01-11T00:04:14.603Z,6.72
2023-01-11T00:07:17.853Z,7.05
2023-01-11T00:10:22.061Z,6.90
2023-01-11T00:13:25.281Z,6.30
2023-01-11T00:16:28.782Z,7.32
2023-01-11T00:19:32.001Z,6.43
2023-01-11T00:22:35.585Z,6.45
2023-01-11T00:25:39.107Z,6.80
2023-01-11T00:28:43.540Z,7.10
2023-01-11T00:31:46.731Z,6.40
2023-01-11T00:34:50.804Z,5.75
2023-01-11T00:37:54.643Z,5.93
2023-01-11T00:40:58.097Z,7.37
2023-01-11T00:44:20.022Z,6.40
2023-01-11T00:47:41.963Z,6.57
2023-01-11T00:50:45.127Z,7.30
2023-01-11T00:53:51.110Z,7.75
2023-01-11T00:56:54.287Z,6.82
2023-01-11T00:59:57.669Z,7.23
2023-01-11T01:03:00.932Z,8.80
2023-01-11T01:06:04.918Z,7.12
2023-01-11T01:09:08.219Z,7.57
2023-01-11T01:12:32.601Z,5.75
2023-01-11T01:15:36.251Z,6.40
2023-01-11T01:18:41.294Z,7.32
2023-01-11T01:21:45.591Z,5.40
2023-01-11T01:24:49.135Z,5.95
2023-01-11T01:27:52.416Z,6.30
2023-01-11T01:30:56.050Z,6.63
2023-01-11T01:33:59.273Z,5.20
2023-01-11T01:37:03.052Z,6.37
2023-01-11T01:40:07.009Z,6.18
2023-01-11T01:43:16.616Z,6.87
2023-01-11T01:46:22.003Z,7.10
2023-01-11T01:49:26.013Z,5.20
2023-01-11T01:52:29.555Z,7.13
2023-01-11T01:55:38.738Z,5.72
2023-01-11T01:58:49.166Z,6.10
2023-01-11T02:01:52.970Z,7.93
2023-01-11T02:04:57.845Z,6.75
2023-01-11T02:08:07.290Z,5.32
2023-01-11T02:11:30.083Z,7.22
2023-01-11T02:14:34.929Z,6.20
2023-01-11T02:17:38.444Z,7.35
2023-01-11T02:20:47.631Z,7.55
2023-01-11T02:23:51.026Z,6.50
2023-01-11T02:27:16.560Z,6.85
2023-01-11T02:30:33.191Z,8.07
2023-01-11T02:33:54.846Z,6.73
2023-01-11T02:37:09.279Z,6.47
2023-01-11T02:40:29.737Z,6.65
2023-01-11T02:44:19.612Z,6.62
2023-01-11T02:47:33.566Z,7.65
2023-01-11T02:50:43.213Z,8.07
2023-01-11T02:54:03.510Z,7.03
2023-01-11T02:57:09.913Z,8.20
2023-01-11T03:00:15.231Z,7.47
2023-01-11T03:03:30.715Z,8.63
2023-01-11T03:06:35.675Z,8.37
2023-01-11T03:09:47.743Z,8.10
2023-01-11T03:13:37.088Z,7.72
2023-01-11T03:17:17.605Z,6.95
2023-01-11T03:20:31.031Z,8.75
2023-01-11T03:24:08.021Z,7.97
2023-01-11T03:27:25.492Z,10.13
2023-01-11T03:30:46.797Z,9.53
2023-01-11T03:33:52.943Z,14.68
2023-01-11T03:37:04.583Z,11.50
2023-01-11T03:40:17.078Z,13.20
2023-01-11T03:43:23.663Z,11.57
2023-01-11T03:46:39.160Z,9.65
2023-01-11T03:49:54.544Z,9.32
2023-01-11T03:53:05.757Z,10.75
2023-01-11T03:56:12.588Z,16.15
2023-01-11T03:59:16.103Z,11.52
2023-01-11T04:02:25.592Z,13.23
2023-01-11T04:05:29.439Z,10.57
2023-01-11T04:08:32.586Z,13.50
2023-01-11T04:11:36.315Z,12.87
2023-01-11T04:14:39.761Z,13.50
2023-01-11T04:17:43.376Z,14.57
2023-01-11T04:20:47.129Z,13.15
2023-01-11T04:23:51.307Z,13.98
2023-01-11T04:26:54.438Z,15.68
2023-01-11T04:29:58.467Z,20.12
2023-01-11T04:33:02.060Z,21.03
2023-01-11T04:36:10.930Z,27.20
2023-01-11T04:39:15.058Z,23.05
2023-01-11T04:42:18.573Z,22.10
2023-01-11T04:45:21.742Z,24.00
2023-01-11T04:48:25.135Z,28.42
2023-01-11T04:51:28.403Z,19.30
2023-01-11T04:54:31.855Z,17.45
2023-01-11T04:57:35.008Z,19.60
2023-01-11T05:00:38.388Z,15.88
2023-01-11T05:03:41.761Z,17.87
2023-01-11T05:06:45.179Z,16.25
2023-01-11T05:09:48.817Z,17.73
2023-01-11T05:12:52.328Z,17.23
2023-01-11T05:15:56.041Z,16.65
2023-01-11T05:19:03.861Z,15.50
2023-01-11T05:22:07.617Z,19.83
2023-01-11T05:25:12.610Z,16.75
2023-01-11T05:28:15.967Z,15.65
2023-01-11T05:31:20.314Z,17.30
2023-01-11T05:34:23.793Z,20.43
2023-01-11T05:37:27.372Z,18.12
2023-01-11T05:40:32.116Z,18.77
2023-01-11T05:43:56.694Z,19.93
2023-01-11T05:46:59.837Z,17.75
2023-01-11T05:50:04.418Z,20.40
2023-01-11T05:53:08.533Z,21.95
2023-01-11T05:56:12.174Z,21.37
2023-01-11T05:59:15.764Z,17.75
2023-01-11T06:02:21.265Z,35.25
2023-01-11T06:05:26.121Z,22.60
2023-01-11T06:08:29.304Z,21.77
2023-01-11T06:11:33.633Z,24.05
2023-01-11T06:14:38.240Z,27.90
2023-01-11T06:17:41.945Z,27.20
2023-01-11T06:20:50.124Z,24.00
2023-01-11T06:23:55.449Z,29.05
2023-01-11T06:26:58.672Z,29.12
2023-01-11T06:30:05.399Z,32.58
2023-01-11T06:33:09.128Z,34.90
2023-01-11T06:36:14.075Z,34.17
2023-01-11T06:39:17.349Z,32.72
2023-01-11T06:42:20.981Z,31.60
2023-01-11T06:45:24.362Z,35.60
2023-01-11T06:48:28.188Z,30.52
2023-01-11T06:51:31.397Z,32.35
2023-01-11T06:54:34.814Z,37.58
2023-01-11T06:57:38.329Z,34.28
2023-01-11T07:00:42.845Z,24.42
2023-01-11T07:03:46.350Z,25.00
2023-01-11T07:06:49.577Z,28.63
2023-01-11T07:09:54.300Z,23.17
2023-01-11T07:12:59.011Z,22.27
2023-01-11T07:16:05.416Z,22.77
2023-01-11T07:19:10.328Z,22.67
2023-01-11T07:22:13.702Z,34.25
2023-01-11T07:25:18.759Z,31.05
2023-01-11T07:28:22.899Z,35.50
2023-01-11T07:31:26.389Z,35.08
2023-01-11T07:34:29.768Z,29.42
2023-01-11T07:37:34.329Z,27.87
2023-01-11T07:40:37.842Z,27.37
2023-01-11T07:43:41.255Z,28.90
2023-01-11T07:46:44.630Z,25.03
2023-01-11T07:49:48.326Z,31.92
2023-01-11T07:52:52.472Z,31.80
2023-01-11T07:55:56.351Z,28.70
2023-01-11T07:58:59.614Z,31.90
2023-01-11T08:02:05.808Z,37.60
2023-01-11T08:05:09.839Z,31.48
2023-01-11T08:08:13.185Z,32.13
2023-01-11T08:11:35.399Z,31.30
2023-01-11T08:14:41.602Z,24.55
2023-01-11T08:17:45.264Z,18.37
2023-01-11T08:20:53.011Z,21.27
2023-01-11T08:23:59.058Z,16.35
2023-01-11T08:27:05.997Z,21.87
2023-01-11T08:30:10.851Z,23.17
2023-01-11T08:33:14.104Z,26.90
2023-01-11T08:36:17.660Z,25.88
2023-01-11T08:39:20.911Z,23.80
2023-01-11T08:42:24.805Z,25.17
2023-01-11T08:45:28.166Z,19.40
2023-01-11T08:48:31.850Z,15.07
2023-01-11T08:51:35.123Z,16.65
2023-01-11T08:54:38.853Z,13.90
2023-01-11T08:57:41.992Z,20.08
2023-01-11T09:00:46.397Z,14.65
2023-01-11T09:03:50.684Z,17.60
2023-01-11T09:06:54.397Z,14.02
2023-01-11T09:09:57.642Z,14.63
2023-01-11T09:13:01.966Z,14.85
2023-01-11T09:16:05.474Z,14.48
2023-01-11T09:19:09.270Z,14.20
2023-01-11T09:22:12.647Z,14.43
2023-01-11T09:25:16.289Z,16.08
2023-01-11T09:28:19.691Z,12.40
2023-01-11T09:31:23.189Z,9.20
2023-01-11T09:34:27.535Z,8.10
2023-01-11T09:37:31.583Z,7.68
2023-01-11T09:40:55.414Z,7.23
2023-01-11T09:44:16.543Z,7.57
2023-01-11T09:47:28.969Z,5.72
2023-01-11T09:50:41.846Z,9.10
2023-01-11T09:53:53.999Z,7.22
2023-01-11T09:57:24.029Z,7.47
2023-01-11T10:00:50.947Z,7.22
2023-01-11T10:04:04.135Z,8.38
2023-01-11T10:07:16.916Z,6.93
2023-01-11T10:18:29.964Z,7.37
2023-01-11T10:18:49.353Z,7.22
2023-01-11T10:22:02.300Z,7.57
2023-01-11T10:25:14.868Z,6.68
2023-01-11T10:29:16.384Z,6.40
2023-01-11T10:32:50.321Z,6.57
2023-01-11T10:36:15.239Z,7.20
2023-01-11T10:39:40.062Z,8.32
2023-01-11T10:42:57.253Z,7.37
2023-01-11T10:49:14.041Z,6.50
2023-01-11T10:52:35.514Z,7.78
2023-01-11T10:56:05.730Z,8.55
2023-01-11T10:59:18.182Z,6.40
2023-01-11T11:02:53.620Z,7.50
2023-01-11T11:06:02.710Z,6.25
2023-01-11T11:09:18.139Z,6.18
2023-01-11T11:12:31.971Z,6.40
2023-01-11T11:15:53.529Z,7.75
2023-01-11T11:18:59.339Z,6.32
2023-01-11T11:22:02.625Z,6.28
2023-01-11T11:25:16.786Z,8.40
2023-01-11T11:28:22.690Z,8.63
2023-01-11T11:31:26.627Z,7.50
2023-01-11T11:34:31.202Z,7.25
2023-01-11T11:37:36.659Z,7.22
2023-01-11T11:40:39.858Z,7.62
2023-01-11T11:43:47.898Z,7.73
2023-01-11T11:47:04.720Z,7.95
2023-01-11T11:50:45.242Z,7.50
2023-01-11T11:53:53.445Z,6.32
2023-01-11T11:57:00.165Z,8.45
2023-01-11T12:00:20.788Z,8.07
2023-01-11T12:03:32.287Z,5.53
2023-01-11T12:06:35.606Z,7.07
2023-01-11T12:09:44.646Z,4.85
2023-01-11T12:12:56.789Z,4.95
2023-01-11T12:16:20.367Z,7.03
2023-01-11T12:19:30.046Z,7.07
2023-01-11T12:22:33.542Z,8.98
2023-01-11T12:26:00.540Z,7.80
2023-01-11T12:29:39.187Z,5.78
2023-01-11T12:32:48.027Z,6.53
2023-01-11T12:36:13.629Z,8.23
2023-01-11T12:39:36.099Z,6.20
2023-01-11T12:42:55.192Z,4.80
2023-01-11T12:46:04.957Z,5.53
2023-01-11T12:49:45.592Z,4.73
2023-01-11T12:53:22.446Z,5.30
2023-01-11T12:56:47.704Z,5.28
2023-01-11T13:00:12.116Z,6.87
2023-01-11T13:03:34.939Z,5.70
2023-01-11T13:06:46.487Z,7.93
2023-01-11T13:10:09.842Z,7.62
2023-01-11T13:13:32.227Z,37.38
2023-01-11T13:17:01.708Z,8.75
2023-01-11T13:20:40.443Z,8.30
2023-01-11T13:23:55.307Z,7.07
2023-01-11T13:27:07.563Z,12.02
2023-01-11T13:30:13.289Z,14.43
2023-01-11T13:33:23.201Z,6.40
2023-01-11T13:36:33.525Z,7.57
2023-01-11T13:39:46.956Z,5.63
2023-01-11T13:43:20.893Z,7.28
2023-01-11T13:46:44.265Z,6.00
2023-01-11T13:49:59.528Z,6.18
2023-01-11T13:53:10.125Z,13.02
2023-01-11T13:56:26.437Z,19.57
2023-01-11T13:59:39.898Z,5.28
2023-01-11T14:03:22.872Z,4.97
2023-01-11T14:06:45.760Z,6.43
2023-01-11T14:10:14.813Z,8.27
2023-01-11T14:13:52.227Z,8.33
2023-01-11T14:17:28.295Z,7.62
2023-01-11T14:20:37.623Z,6.53
2023-01-11T14:23:52.746Z,5.87
2023-01-11T14:27:15.148Z,9.30
2023-01-11T14:30:37.246Z,8.63
2023-01-11T14:33:58.797Z,11.70
2023-01-11T14:37:07.772Z,14.87
2023-01-11T14:40:38.441Z,11.63
2023-01-11T14:44:13.852Z,7.95
2023-01-11T14:47:35.587Z,8.32
2023-01-11T14:51:07.058Z,13.23
2023-01-11T14:54:16.511Z,11.85
2023-01-11T14:57:37.846Z,15.33
2023-01-11T15:00:44.863Z,26.75
2023-01-11T15:03:49.302Z,15.98
2023-01-11T15:06:55.293Z,24.55
2023-01-11T15:10:06.068Z,16.33
2023-01-11T15:13:18.528Z,15.85
2023-01-11T15:16:44.155Z,15.85
2023-01-11T15:19:54.044Z,25.83
2023-01-11T15:23:03.615Z,28.43
2023-01-11T15:26:09.748Z,18.23
2023-01-11T15:29:39.502Z,19.55
2023-01-11T15:32:44.080Z,18.17
2023-01-11T15:35:56.203Z,20.75
2023-01-11T15:39:07.386Z,27.08
2023-01-11T15:42:16.601Z,36.50
2023-01-11T15:46:22.146Z,25.93
2023-01-11T15:49:40.448Z,37.03
2023-01-11T15:53:26.539Z,34.78
2023-01-11T15:56:55.842Z,24.63
2023-01-11T16:00:02.507Z,31.83
2023-01-11T16:03:28.961Z,41.92
2023-01-11T16:06:37.564Z,43.00
2023-01-11T16:10:16.694Z,30.43
2023-01-11T16:13:24.484Z,27.00
2023-01-11T16:16:32.562Z,30.33
2023-01-11T16:19:39.982Z,25.60
2023-01-11T16:23:00.364Z,34.92
2023-01-11T16:26:05.150Z,38.55
2023-01-11T16:29:21.773Z,43.83
2023-01-11T16:32:33.661Z,38.33
2023-01-11T16:35:37.137Z,47.38
2023-01-11T16:39:04.731Z,75.85
2023-01-11T16:42:11.411Z,80.90
2023-01-11T16:45:21.885Z,73.18
2023-01-11T16:48:30.431Z,68.07
2023-01-11T16:51:33.972Z,67.67
2023-01-11T16:54:37.179Z,78.03
2023-01-11T16:57:44.481Z,82.60
2023-01-11T17:01:00.545Z,84.60
2023-01-11T17:04:07.296Z,82.43
2023-01-11T17:07:30.330Z,92.88
2023-01-11T17:10:34.167Z,78.47
2023-01-11T17:13:59.608Z,82.93
2023-01-11T17:17:13.303Z,81.22
2023-01-11T17:20:25.177Z,82.18
2023-01-11T17:23:31.053Z,76.17
2023-01-11T17:26:45.551Z,87.32
2023-01-11T17:29:53.352Z,93.12
2023-01-11T17:33:01.891Z,79.80
2023-01-11T17:36:07.241Z,84.95
2023-01-11T17:39:33.660Z,103.82
2023-01-11T17:42:57.023Z,111.62
2023-01-11T17:46:02.835Z,101.20
2023-01-11T17:49:21.220Z,134.52
2023-01-11T17:52:26.339Z,119.82
2023-01-11T17:55:30.602Z,120.77
2023-01-11T17:58:42.709Z,106.65
2023-01-11T18:01:49.513Z,98.05
2023-01-11T18:05:00.141Z,76.80
2023-01-11T18:08:09.687Z,75.78
2023-01-11T18:11:21.501Z,69.28
2023-01-11T18:14:29.908Z,71.10
2023-01-11T18:17:37.789Z,68.27
2023-01-11T18:20:43.389Z,64.55
2023-01-11T18:23:47.057Z,71.70
2023-01-11T18:27:06.716Z,65.40
2023-01-11T18:30:31.734Z,79.95
2023-01-11T18:33:40.650Z,83.65
2023-01-11T18:36:44.589Z,94.78
2023-01-11T18:39:51.567Z,89.53
2023-01-11T18:42:56.169Z,93.75
2023-01-11T18:45:59.979Z,93.78
2023-01-11T18:49:05.198Z,92.87
2023-01-11T18:52:09.062Z,99.35
2023-01-11T18:55:14.814Z,102.50
2023-01-11T18:58:22.976Z,107.83
2023-01-11T19:01:31.751Z,105.00
2023-01-11T19:04:37.074Z,110.07
2023-01-11T19:07:41.562Z,96.70
2023-01-11T19:10:45.655Z,89.15
2023-01-11T19:13:50.727Z,91.72
2023-01-11T19:16:55.895Z,87.50
2023-01-11T19:20:01.642Z,93.07
2023-01-11T19:23:05.726Z,94.40
2023-01-11T19:26:09.865Z,107.60
2023-01-11T19:29:18.121Z,79.80
2023-01-11T19:32:26.463Z,87.43
2023-01-11T19:35:32.876Z,220.30
2023-01-11T19:38:37.582Z,171.20
2023-01-11T19:41:54.601Z,119.55
2023-01-11T19:45:00.650Z,122.75
2023-01-11T19:48:05.597Z,122.20
2023-01-11T19:51:12.934Z,123.23
2023-01-11T19:54:17.991Z,112.78
2023-01-11T19:57:22.935Z,118.45
2023-01-11T20:00:26.795Z,166.83
2023-01-11T20:03:31.182Z,168.73
2023-01-11T20:06:35.232Z,149.50
2023-01-11T20:09:40.915Z,129.07
2023-01-11T20:12:44.411Z,113.05
2023-01-11T20:15:48.715Z,106.95
2023-01-11T20:18:58.486Z,88.95
2023-01-11T20:22:03.361Z,83.47
2023-01-11T20:25:08.303Z,81.53
2023-01-11T20:28:12.713Z,78.40
2023-01-11T20:31:18.118Z,84.67
2023-01-11T20:34:22.434Z,84.25
2023-01-11T20:37:26.980Z,86.10
2023-01-11T20:40:34.483Z,92.85
2023-01-11T20:43:39.928Z,116.35
2023-01-11T20:46:47.503Z,114.12
2023-01-11T20:49:52.502Z,95.72
2023-01-11T20:52:59.573Z,86.77
2023-01-11T20:56:06.658Z,79.55
2023-01-11T21:02:14.395Z,91.13
2023-01-11T21:05:17.923Z,93.03
2023-01-11T21:08:21.500Z,114.70
2023-01-11T21:11:25.588Z,95.45
2023-01-11T21:14:30.676Z,81.07
2023-01-11T21:17:35.350Z,107.37
2023-01-11T21:20:40.816Z,163.30
2023-01-11T21:23:46.547Z,161.80
2023-01-11T21:26:49.759Z,131.60
2023-01-11T21:29:54.153Z,111.03
2023-01-11T21:32:58.275Z,93.57
2023-01-11T21:36:06.861Z,90.15
2023-01-11T21:39:17.135Z,80.32
2023-01-11T21:42:22.241Z,85.93
2023-01-11T21:45:26.517Z,91.65
2023-01-11T21:48:32.022Z,81.40
2023-01-11T21:51:37.012Z,74.28
2023-01-11T21:54:40.618Z,75.70
2023-01-11T21:57:44.529Z,72.53
2023-01-11T22:00:48.248Z,73.40
2023-01-11T22:03:51.935Z,76.53
2023-01-11T22:06:57.204Z,395.55
2023-01-11T22:10:05.161Z,407.88
2023-01-11T22:13:12.952Z,243.48
2023-01-11T22:16:18.452Z,159.23
2023-01-11T22:19:22.224Z,144.07
2023-01-11T22:22:26.234Z,131.87
2023-01-11T22:25:29.358Z,196.93
2023-01-11T22:28:33.140Z,150.68
2023-01-11T22:31:36.761Z,146.02
2023-01-11T22:34:40.628Z,177.10
2023-01-11T22:37:44.138Z,181.23
2023-01-11T22:40:47.706Z,156.90
2023-01-11T22:43:50.990Z,137.45
2023-01-11T22:46:54.468Z,131.25
2023-01-11T22:49:57.839Z,124.82
2023-01-11T22:53:01.326Z,139.82
2023-01-11T22:56:05.601Z,608.40
2023-01-11T22:59:10.176Z,475.10
2023-01-11T23:02:13.424Z,202.57
2023-01-11T23:05:17.828Z,189.37
2023-01-11T23:08:21.163Z,168.90
2023-01-11T23:11:46.816Z,134.87
2023-01-11T23:14:50.185Z,101.93
2023-01-11T23:17:53.728Z,103.68
2023-01-11T23:21:03.111Z,104.50
2023-01-11T23:24:07.105Z,101.80
2023-01-11T23:27:10.306Z,94.73
2023-01-11T23:30:14.517Z,95.40
2023-01-11T23:33:17.680Z,94.37
2023-01-11T23:36:22.596Z,139.93
2023-01-11T23:39:25.845Z,98.12
2023-01-11T23:42:29.482Z,87.20
2023-01-11T23:45:32.678Z,88.07
2023-01-11T23:48:36.566Z,72.87
2023-01-11T23:51:39.625Z,85.85
2023-01-11T23:54:45.774Z,79.25
2023-01-11T23:58:08.965Z,88.37
